Time;durP1;ratioP1;P1;durP2;ratioP2;P2;SDS_P1;SDS_P2;PMS_P1;PMS_P2;Temp;Humidity;BMP_temperature;BMP_pressure;BME280_temperature;BME280_humidity;BME280_pressure;Samples;Min_cycle;Max_cycle;Signal;HPM_P1;HPM_P2
2022/12/28 00:00:48;;;;;;;;;1.00;1.00;;;;;11.48;100.00;101786.19;5058036;28;45797;-75
2022/12/28 00:03:13;;;;;;;;;3.00;2.00;;;;;11.47;100.00;101780.88;5057532;28;45445;-75
2022/12/28 00:05:39;;;;;;;;;2.67;1.00;;;;;11.52;100.00;101790.69;5057030;28;62224;-75
2022/12/28 00:08:04;;;;;;;;;3.00;2.00;;;;;11.47;100.00;101775.59;5057509;28;58914;-77
2022/12/28 00:10:30;;;;;;;;;3.00;1.33;;;;;11.47;100.00;101771.19;5057858;28;45592;-75
2022/12/28 00:12:55;;;;;;;;;3.00;1.00;;;;;11.51;100.00;101778.34;5046242;28;45415;-73
2022/12/28 00:15:21;;;;;;;;;4.00;2.00;;;;;11.51;100.00;101769.50;5057860;28;45907;-75
2022/12/28 00:17:46;;;;;;;;;2.33;2.33;;;;;11.47;100.00;101773.81;5057690;28;45218;-77
2022/12/28 00:20:12;;;;;;;;;1.67;1.67;;;;;11.53;100.00;101773.06;5058202;28;45581;-75
2022/12/28 00:22:37;;;;;;;;;2.00;2.00;;;;;11.48;100.00;101753.56;5057687;28;45459;-75
2022/12/28 00:25:03;;;;;;;;;3.33;1.33;;;;;11.48;100.00;101743.88;5073192;28;46383;-78
2022/12/28 00:27:29;;;;;;;;;1.33;1.33;;;;;11.49;100.00;101744.75;5073355;28;45343;-75
2022/12/28 00:29:54;;;;;;;;;6.33;3.00;;;;;11.53;100.00;101744.88;5057419;28;45185;-75
2022/12/28 00:32:20;;;;;;;;;2.67;2.67;;;;;11.51;100.00;101736.03;5057728;28;45584;-75
2022/12/28 00:34:45;;;;;;;;;2.00;2.00;;;;;11.55;100.00;101729.03;5057072;28;46592;-77
2022/12/28 00:37:11;;;;;;;;;2.00;2.00;;;;;11.55;100.00;101724.63;5073219;28;45350;-76
2022/12/28 00:39:36;;;;;;;;;3.33;2.00;;;;;11.57;100.00;101734.38;5056849;28;56946;-77
2022/12/28 00:42:01;;;;;;;;;3.00;3.00;;;;;11.53;100.00;101707.84;5056911;28;55113;-75
2022/12/28 00:44:27;;;;;;;;;2.00;2.00;;;;;11.59;100.00;101716.75;5057029;28;55813;-74
2022/12/28 00:46:52;;;;;;;;;1.00;1.00;;;;;11.57;100.00;101723.78;5070479;28;45472;-75
2022/12/28 00:49:18;;;;;;;;;2.00;2.00;;;;;11.58;100.00;101721.16;5056650;28;53854;-75
2022/12/28 00:51:44;;;;;;;;;2.00;2.00;;;;;11.54;100.00;101704.31;5057433;28;45966;-75
2022/12/28 00:54:10;;;;;;;;;4.00;2.00;;;;;11.54;100.00;101714.91;5056413;28;59824;-73
2022/12/28 00:56:35;;;;;;;;;2.67;2.00;;;;;11.58;100.00;101717.63;5060543;28;46994;-76
2022/12/28 00:59:00;;;;;;;;;1.33;1.33;;;;;11.55;100.00;101706.09;5055736;28;53532;-75
2022/12/28 01:01:27;;;;;;;;;1.00;1.00;;;;;11.52;100.00;101698.13;5056766;28;53511;-75
2022/12/28 01:03:55;;;;;;;;;2.00;1.00;;;;;11.60;100.00;101710.59;5056756;28;45877;-75
2022/12/28 01:06:21;;;;;;;;;2.67;2.00;;;;;11.60;100.00;101714.13;5056983;28;45390;-75
2022/12/28 01:08:46;;;;;;;;;2.00;1.33;;;;;11.59;100.00;101704.44;5056827;28;45411;-74
2022/12/28 01:11:19;;;;;;;;;3.00;2.00;;;;;11.63;100.00;101713.31;5057144;28;45579;-76
2022/12/28 01:13:44;;;;;;;;;3.00;2.00;;;;;11.57;100.00;101706.16;5053270;28;46339;-77
2022/12/28 01:16:12;;;;;;;;;3.00;2.00;;;;;11.62;100.00;101703.63;5056600;28;45492;-76
2022/12/28 01:18:37;;;;;;;;;2.00;2.00;;;;;11.65;100.00;101703.66;5056955;28;45237;-76
2022/12/28 01:21:16;;;;;;;;;2.00;2.00;;;;;11.60;100.00;101692.97;5056301;28;55859;-75
2022/12/28 01:23:43;;;;;;;;;2.33;1.00;;;;;11.60;100.00;101694.72;5056787;28;46076;-74
2022/12/28 01:26:08;;;;;;;;;2.00;1.00;;;;;11.60;100.00;101692.97;5056509;28;45264;-74
2022/12/28 01:28:34;;;;;;;;;4.33;2.67;;;;;11.63;100.00;101687.75;5056867;28;45326;-75
2022/12/28 01:31:07;;;;;;;;;4.00;2.00;;;;;11.62;100.00;101699.22;5056915;28;45200;-77
2022/12/28 01:33:33;;;;;;;;;1.00;1.00;;;;;11.59;100.00;101680.63;5056814;28;46023;-75
2022/12/28 01:35:58;;;;;;;;;1.00;1.00;;;;;11.60;100.00;101676.22;5055435;28;45197;-76
2022/12/28 01:38:23;;;;;;;;;4.00;2.00;;;;;11.63;100.00;101686.88;5055115;28;45188;-77
2022/12/28 01:40:49;;;;;;;;;2.67;2.33;;;;;11.61;100.00;101680.63;5056481;28;47891;-75
2022/12/28 01:43:14;;;;;;;;;1.00;1.00;;;;;11.61;100.00;101676.28;5055834;28;58780;-75
2022/12/28 01:45:41;;;;;;;;;1.33;1.33;;;;;11.62;100.00;101685.09;5056844;28;45212;-75
2022/12/28 01:48:20;;;;;;;;;1.33;1.00;;;;;11.64;100.00;101688.66;5069757;28;45554;-76
2022/12/28 01:50:46;;;;;;;;;9.33;1.33;;;;;11.66;100.00;101684.28;5072300;28;45445;-75
2022/12/28 01:53:11;;;;;;;;;3.33;1.67;;;;;11.64;100.00;101686.00;5054847;28;47569;-75
2022/12/28 01:55:39;;;;;;;;;4.00;1.67;;;;;11.65;100.00;101680.75;5056505;28;45221;-75
2022/12/28 01:58:09;;;;;;;;;1.33;1.33;;;;;11.66;100.00;101677.22;5056220;28;48655;-76
2022/12/28 02:00:34;;;;;;;;;4.33;1.33;;;;;11.65;100.00;101674.56;5049955;28;45910;-74
2022/12/28 02:03:06;;;;;;;;;4.00;2.00;;;;;11.69;100.00;101679.06;5055804;28;59867;-74
2022/12/28 02:05:35;;;;;;;;;3.00;2.00;;;;;11.71;100.00;101666.75;5071645;28;45460;-76
2022/12/28 02:08:11;;;;;;;;;2.33;1.00;;;;;11.73;100.00;101662.38;5055296;28;45268;-74
2022/12/28 02:10:36;;;;;;;;;3.00;1.00;;;;;11.72;100.00;101656.22;5054881;28;45555;-75
2022/12/28 02:13:03;;;;;;;;;3.00;1.67;;;;;11.69;100.00;101650.84;5068493;28;45664;-75
2022/12/28 02:15:28;;;;;;;;;1.67;1.67;;;;;11.68;100.00;101662.28;5055100;28;45303;-75
2022/12/28 02:17:54;;;;;;;;;1.00;1.00;;;;;11.69;100.00;101644.66;5056452;28;45146;-76
2022/12/28 02:20:20;;;;;;;;;1.00;1.00;;;;;11.69;100.00;101642.03;5071888;28;45445;-75
2022/12/28 02:22:57;;;;;;;;;1.00;1.00;;;;;11.73;100.00;101652.69;5071556;28;46219;-74
2022/12/28 02:25:31;;;;;;;;;1.33;1.33;;;;;11.70;100.00;101649.09;5071824;28;45250;-76
2022/12/28 02:28:19;;;;;;;;;1.00;1.00;;;;;11.72;100.00;101652.69;5058372;28;45429;-76
2022/12/28 02:30:55;;;;;;;;;2.67;2.00;;;;;11.70;100.00;101655.28;5059922;28;45466;-75
2022/12/28 02:33:29;;;;;;;;;2.00;1.00;;;;;11.70;100.00;101627.94;5081088;28;46192;-77
2022/12/28 02:36:01;;;;;;;;;3.00;1.00;;;;;11.69;100.00;101631.44;5087767;28;45314;-75
2022/12/28 02:38:29;;;;;;;;;2.00;1.00;;;;;11.75;100.00;101639.50;5047440;28;45303;-76
2022/12/28 02:41:08;;;;;;;;;1.67;1.00;;;;;11.76;100.00;101647.44;5059884;28;45658;-76
2022/12/28 02:43:34;;;;;;;;;1.33;1.00;;;;;11.75;100.00;101640.38;5057882;28;46628;-77
2022/12/28 02:51:53;;;;;;;;;4.00;2.67;;;;;11.79;100.00;101631.66;5059179;28;45422;-74
2022/12/28 02:56:06;;;;;;;;;2.00;1.00;;;;;11.82;100.00;101636.13;5058953;28;47438;-74
2022/12/28 02:57:45;;;;;;;;;1.00;1.00;;;;;11.83;100.00;101622.06;5058921;27;45287;-75
2022/12/28 03:00:14;;;;;;;;;4.67;1.00;;;;;11.86;100.00;101626.50;5055981;28;45288;-75
2022/12/28 03:02:55;;;;;;;;;1.67;1.00;;;;;11.88;100.00;101627.41;5059157;28;45554;-76
2022/12/28 03:08:59;;;;;;;;;4.00;4.00;;;;;11.93;100.00;101631.03;5069864;28;45501;-74
2022/12/28 03:11:47;;;;;;;;;3.33;2.00;;;;;11.89;100.00;101603.63;5059139;28;45180;-74
2022/12/28 03:14:18;;;;;;;;;3.00;1.00;;;;;11.92;100.00;101613.38;5073555;28;45523;-74
2022/12/28 03:31:07;;;;;;;;;1.00;1.00;;;;;11.98;100.00;101595.84;5030992;28;45383;-76
2022/12/28 03:33:52;;;;;;;;;2.67;2.00;;;;;11.98;100.00;101587.91;5038863;28;45422;-77
2022/12/28 03:36:24;;;;;;;;;3.00;3.00;;;;;12.05;100.00;101591.56;5074286;28;45426;-78
2022/12/28 03:39:02;;;;;;;;;2.00;2.00;;;;;12.02;100.00;101567.69;5056614;28;47980;-77
2022/12/28 03:41:32;;;;;;;;;3.00;3.00;;;;;12.03;100.00;101569.44;5057730;28;45407;-74
2022/12/28 03:44:02;;;;;;;;;4.00;2.00;;;;;12.04;100.00;101566.84;5057227;28;45504;-75
2022/12/28 03:46:35;;;;;;;;;1.00;1.00;;;;;12.09;100.00;101572.22;5069628;28;45467;-76
2022/12/28 03:49:01;;;;;;;;;3.67;2.00;;;;;12.07;100.00;101564.25;5052454;28;46450;-75
2022/12/28 03:51:28;;;;;;;;;2.00;2.00;;;;;12.12;100.00;101563.44;5056896;28;45710;-77
2022/12/28 03:53:53;;;;;;;;;7.33;2.00;;;;;12.09;100.00;101564.28;5074132;28;45453;-75
2022/12/28 03:56:22;;;;;;;;;3.00;3.00;;;;;12.09;100.00;101555.41;5073906;28;45581;-76
2022/12/28 03:58:48;;;;;;;;;1.67;1.67;;;;;12.11;100.00;101562.53;5058086;28;45698;-76
2022/12/28 04:01:14;;;;;;;;;3.00;2.33;;;;;12.11;100.00;101564.31;5057653;28;45418;-75
2022/12/28 04:03:40;;;;;;;;;3.33;2.00;;;;;12.11;100.00;101553.72;5058086;28;45336;-74
2022/12/28 04:06:06;;;;;;;;;2.00;2.00;;;;;12.11;100.00;101554.59;5057898;28;45478;-76
2022/12/28 04:08:32;;;;;;;;;4.00;3.00;;;;;12.09;100.00;101551.06;5057842;28;46456;-75
2022/12/28 04:10:58;;;;;;;;;2.00;2.00;;;;;12.09;100.00;101548.41;5073453;28;45260;-75
2022/12/28 04:13:24;;;;;;;;;4.00;4.00;;;;;12.10;100.00;101541.34;5048672;28;45257;-76
2022/12/28 04:16:00;;;;;;;;;3.67;2.00;;;;;12.05;100.00;101533.34;5057438;28;45188;-75
2022/12/28 04:18:26;;;;;;;;;3.00;2.00;;;;;12.05;100.00;101526.28;5057620;28;45754;-74
2022/12/28 04:20:52;;;;;;;;;9.00;2.33;;;;;12.06;100.00;101528.06;5057692;28;45471;-76
2022/12/28 04:23:17;;;;;;;;;4.00;3.00;;;;;12.06;100.00;101522.75;5057870;28;45435;-79
2022/12/28 04:25:42;;;;;;;;;0.33;0.00;;;;;12.06;100.00;101520.13;5058056;28;45318;-74
2022/12/28 04:28:08;;;;;;;;;1.33;1.00;;;;;12.10;100.00;101525.47;5057107;28;52502;-75
2022/12/28 04:30:33;;;;;;;;;2.33;2.33;;;;;12.07;100.00;101515.69;5057119;28;58394;-75
2022/12/28 04:32:58;;;;;;;;;2.00;2.00;;;;;12.11;100.00;101514.00;5072693;28;54151;-75
2022/12/28 04:35:24;;;;;;;;;4.00;3.00;;;;;12.09;100.00;101513.06;5057329;28;51503;-76
2022/12/28 04:37:49;;;;;;;;;2.67;2.00;;;;;12.11;100.00;101519.31;5072324;28;61157;-76
2022/12/28 04:40:14;;;;;;;;;2.00;2.00;;;;;12.10;100.00;101510.47;5056750;28;56638;-77
2022/12/28 04:42:39;;;;;;;;;1.00;1.00;;;;;12.10;100.00;101510.47;5053575;28;51854;-77
2022/12/28 04:45:05;;;;;;;;;2.00;2.00;;;;;12.11;100.00;101512.25;5057044;28;55093;-75
2022/12/28 04:47:31;;;;;;;;;3.00;2.00;;;;;12.09;100.00;101508.69;5056762;28;45689;-76
2022/12/28 04:49:56;;;;;;;;;2.00;2.00;;;;;12.10;100.00;101515.75;5056763;28;45244;-76
2022/12/28 04:52:22;;;;;;;;;3.00;2.00;;;;;12.12;100.00;101507.84;5057044;28;45156;-75
2022/12/28 04:54:47;;;;;;;;;1.00;1.00;;;;;12.08;100.00;101498.94;5057005;28;49647;-74
2022/12/28 04:57:13;;;;;;;;;3.00;1.67;;;;;12.10;100.00;101499.88;5057087;28;45609;-74
2022/12/28 04:59:39;;;;;;;;;3.33;2.33;;;;;12.07;100.00;101490.13;5057164;28;45359;-74
2022/12/28 05:02:08;;;;;;;;;3.33;2.00;;;;;12.11;100.00;101488.41;5057206;28;45288;-74
2022/12/28 05:04:33;;;;;;;;;5.00;1.00;;;;;12.11;100.00;101487.53;5057116;28;45605;-74
2022/12/28 05:06:58;;;;;;;;;2.00;2.00;;;;;12.11;100.00;101496.38;5056432;28;62681;-77
2022/12/28 05:09:24;;;;;;;;;3.00;2.00;;;;;12.13;100.00;101485.78;5056137;28;61810;-75
2022/12/28 05:11:49;;;;;;;;;1.00;1.00;;;;;12.13;100.00;101485.78;5053904;28;55003;-73
2022/12/28 05:14:14;;;;;;;;;5.00;1.67;;;;;12.11;100.00;101477.84;5056381;28;47050;-76
2022/12/28 05:16:40;;;;;;;;;1.00;1.00;;;;;12.11;100.00;101475.19;5056793;28;46233;-75
2022/12/28 05:19:05;;;;;;;;;1.33;1.33;;;;;12.11;100.00;101476.94;5045295;28;47230;-76
2022/12/28 05:21:30;;;;;;;;;1.00;1.00;;;;;12.07;100.00;101470.72;5056665;28;49044;-75
2022/12/28 05:23:56;;;;;;;;;3.00;1.00;;;;;12.06;100.00;101472.47;5056753;28;54505;-74
2022/12/28 05:26:27;;;;;;;;;1.67;1.33;;;;;12.13;100.00;101480.50;5057578;28;45975;-76
2022/12/28 05:28:53;;;;;;;;;1.67;1.00;;;;;12.12;100.00;101476.06;5056781;28;45425;-76
2022/12/28 05:31:21;;;;;;;;;4.00;2.00;;;;;12.09;100.00;101463.69;5056783;28;45363;-75
2022/12/28 05:33:46;;;;;;;;;1.33;1.33;;;;;12.06;100.00;101463.63;5056524;28;45232;-75
2022/12/28 05:36:20;;;;;;;;;3.33;1.67;;;;;12.05;100.00;101468.03;5056476;28;46532;-74
2022/12/28 05:38:46;;;;;;;;;1.67;0.33;;;;;12.10;100.00;101476.06;5186108;22;46091;-78
2022/12/28 05:41:14;;;;;;;;;3.00;2.00;;;;;12.10;100.00;101478.72;5056519;28;45502;-75
2022/12/28 05:43:40;;;;;;;;;1.00;1.00;;;;;12.04;100.00;101468.03;5056579;28;45637;-76
2022/12/28 05:46:08;;;;;;;;;1.00;1.00;;;;;12.06;100.00;101458.34;5056131;28;45501;-78
2022/12/28 05:48:35;;;;;;;;;2.00;1.00;;;;;12.02;100.00;101459.16;5055318;28;45371;-76
2022/12/28 05:51:03;;;;;;;;;1.00;1.00;;;;;12.06;100.00;101476.88;5056375;28;45296;-78
2022/12/28 05:53:29;;;;;;;;;1.00;1.00;;;;;12.02;100.00;101460.03;5056649;28;45349;-76
2022/12/28 05:56:14;;;;;;;;;1.00;1.00;;;;;12.03;100.00;101459.16;5056103;28;45599;-75
2022/12/28 05:58:44;;;;;;;;;1.67;1.00;;;;;12.08;100.00;101459.25;5072319;28;45323;-75
2022/12/28 06:01:17;;;;;;;;;2.67;1.67;;;;;12.07;100.00;101453.06;5054589;28;45470;-74
2022/12/28 06:03:43;;;;;;;;;1.33;1.33;;;;;12.03;100.00;101453.00;5058626;28;45706;-74
2022/12/28 06:06:11;;;;;;;;;1.00;1.00;;;;;12.05;100.00;101460.09;5058270;28;45398;-78
2022/12/28 06:08:38;;;;;;;;;1.00;1.00;;;;;12.00;100.00;101445.03;5059861;28;45389;-75
2022/12/28 06:11:06;;;;;;;;;4.00;2.00;;;;;12.01;100.00;101450.34;5058822;28;45318;-75
2022/12/28 06:13:32;;;;;;;;;2.67;2.00;;;;;12.03;100.00;101438.00;5059519;28;45626;-77
2022/12/28 06:16:03;;;;;;;;;1.00;1.00;;;;;11.98;100.00;101429.09;5059660;28;46187;-75
2022/12/28 06:18:28;;;;;;;;;3.33;1.00;;;;;12.03;100.00;101438.00;5059589;28;45585;-74
2022/12/28 06:20:54;;;;;;;;;1.00;1.00;;;;;12.05;100.00;101436.28;5059868;28;45898;-77
2022/12/28 06:23:19;;;;;;;;;4.67;2.00;;;;;12.09;100.00;101436.31;5074927;28;45454;-78
2022/12/28 06:25:44;;;;;;;;;1.33;1.00;;;;;12.07;100.00;101425.72;5059125;28;58098;-78
2022/12/28 06:28:10;;;;;;;;;2.33;2.00;;;;;12.07;100.00;101421.31;5059185;28;45466;-73
2022/12/28 06:30:35;;;;;;;;;4.00;2.33;;;;;12.04;100.00;101421.28;5059192;28;55304;-76
2022/12/28 06:33:00;;;;;;;;;2.00;2.00;;;;;12.04;100.00;101417.75;5059100;28;53936;-74
2022/12/28 06:35:26;;;;;;;;;1.00;1.00;;;;;12.10;100.00;101416.94;5058718;28;60348;-74
2022/12/28 06:37:51;;;;;;;;;3.00;1.00;;;;;12.10;100.00;101407.22;5057818;28;56620;-76
2022/12/28 06:40:17;;;;;;;;;2.33;2.00;;;;;12.06;100.00;101401.00;5058688;28;54802;-74
2022/12/28 06:42:42;;;;;;;;;2.33;1.00;;;;;12.11;100.00;101408.13;5059262;28;45413;-76
2022/12/28 06:45:08;;;;;;;;;2.00;2.00;;;;;12.14;100.00;101408.16;5059557;28;45901;-75
2022/12/28 06:47:35;;;;;;;;;1.00;1.00;;;;;12.13;100.00;101406.38;5046812;28;45613;-74
2022/12/28 06:50:02;;;;;;;;;3.67;1.00;;;;;12.13;100.00;101393.13;5059306;28;45196;-75
2022/12/28 06:52:27;;;;;;;;;3.33;2.00;;;;;12.12;100.00;101401.94;5058122;28;45596;-74
2022/12/28 06:54:53;;;;;;;;;3.33;2.00;;;;;12.13;100.00;101401.97;5058627;28;61704;-75
2022/12/28 06:57:19;;;;;;;;;4.33;1.33;;;;;12.14;100.00;101402.84;5058514;28;59348;-75
2022/12/28 06:59:44;;;;;;;;;5.00;1.33;;;;;12.11;100.00;101390.47;5074447;28;53674;-74
2022/12/28 07:02:10;;;;;;;;;1.00;1.00;;;;;12.13;100.00;101382.53;5059101;28;45465;-75
2022/12/28 07:04:35;;;;;;;;;5.00;2.33;;;;;12.15;100.00;101388.78;5074578;28;46302;-75
2022/12/28 07:07:01;;;;;;;;;1.00;1.00;;;;;12.15;100.00;101391.41;5059251;28;45225;-75
2022/12/28 07:09:26;;;;;;;;;2.33;1.00;;;;;12.13;100.00;101377.25;5058801;28;45422;-74
2022/12/28 07:11:51;;;;;;;;;1.33;1.33;;;;;12.14;100.00;101384.31;5055549;28;54272;-76
2022/12/28 07:14:17;;;;;;;;;2.33;1.00;;;;;12.17;100.00;101379.97;5054243;28;46255;-77
2022/12/28 07:16:43;;;;;;;;;1.00;1.00;;;;;12.18;100.00;101364.97;5058884;28;45342;-74
2022/12/28 07:19:09;;;;;;;;;1.67;1.67;;;;;12.19;100.00;101377.31;5058993;28;45457;-75
2022/12/28 07:21:36;;;;;;;;;2.00;1.00;;;;;12.18;100.00;101371.16;5058577;28;47621;-75
2022/12/28 07:24:03;;;;;;;;;2.33;2.00;;;;;12.18;100.00;101359.66;5058607;28;47560;-76
2022/12/28 07:26:30;;;;;;;;;1.00;1.00;;;;;12.22;100.00;101357.09;5058187;28;45314;-74
2022/12/28 07:28:57;;;;;;;;;2.00;2.00;;;;;12.18;100.00;101344.66;5058991;28;45354;-77
2022/12/28 07:31:25;;;;;;;;;1.00;1.00;;;;;12.20;100.00;101353.53;5058855;28;45555;-75
2022/12/28 07:33:52;;;;;;;;;0.00;0.00;;;;;12.24;100.00;101357.97;5058298;28;45533;-74
2022/12/28 07:36:19;;;;;;;;;4.33;1.33;;;;;12.26;100.00;101352.72;5057043;28;45577;-77
2022/12/28 07:38:45;;;;;;;;;4.33;2.00;;;;;12.27;100.00;101357.16;5057500;28;45493;-74
2022/12/28 07:41:19;;;;;;;;;1.33;1.33;;;;;12.23;100.00;101342.09;5058336;28;45326;-75
2022/12/28 07:43:44;;;;;;;;;1.00;1.00;;;;;12.26;100.00;101343.03;5053456;28;47635;-74
2022/12/28 07:46:13;;;;;;;;;2.00;1.00;;;;;12.27;100.00;101330.66;5072058;28;45351;-76
2022/12/28 07:48:39;;;;;;;;;1.00;1.00;;;;;12.25;100.00;101327.09;5057674;28;45338;-76
2022/12/28 07:51:18;;;;;;;;;1.00;1.00;;;;;12.29;100.00;101336.88;5058486;28;45507;-75
2022/12/28 07:53:45;;;;;;;;;3.33;1.33;;;;;12.25;100.00;101329.75;5057992;28;46802;-74
2022/12/28 07:56:11;;;;;;;;;3.00;1.33;;;;;12.26;100.00;101335.09;5058157;28;45440;-77
2022/12/28 07:58:36;;;;;;;;;1.00;1.00;;;;;12.26;100.00;101320.97;5057046;28;45465;-75
2022/12/28 08:01:12;;;;;;;;;2.33;2.33;;;;;12.24;100.00;101320.91;5057995;28;45331;-74
2022/12/28 08:03:38;;;;;;;;;3.00;1.00;;;;;12.23;100.00;101320.91;5073949;28;46592;-76
2022/12/28 08:06:06;;;;;;;;;3.00;1.00;;;;;12.23;100.00;101323.56;5057653;28;45215;-76
2022/12/28 08:08:36;;;;;;;;;2.00;1.00;;;;;12.23;100.00;101302.38;5058402;28;45526;-75
2022/12/28 08:11:06;;;;;;;;;2.00;2.00;;;;;12.22;100.00;101305.91;5057857;28;45192;-76
2022/12/28 08:13:36;;;;;;;;;1.00;1.00;;;;;12.18;100.00;101293.50;5054621;28;45341;-75
2022/12/28 08:16:02;;;;;;;;;2.33;1.00;;;;;12.19;100.00;101293.50;5058338;28;45217;-76
2022/12/28 08:18:28;;;;;;;;;3.33;1.67;;;;;12.20;100.00;101289.13;5073596;28;45314;-75
2022/12/28 08:20:53;;;;;;;;;1.00;1.00;;;;;12.21;100.00;101281.19;5073711;28;45327;-75
2022/12/28 08:23:19;;;;;;;;;3.00;1.00;;;;;12.25;100.00;101287.38;5057610;28;46403;-74
2022/12/28 08:25:44;;;;;;;;;1.67;1.00;;;;;12.24;100.00;101299.72;5056986;28;45450;-74
2022/12/28 08:28:09;;;;;;;;;1.33;1.33;;;;;12.20;100.00;101282.06;5057222;28;54716;-74
2022/12/28 08:30:35;;;;;;;;;3.00;2.00;;;;;12.25;100.00;101288.31;5057332;28;55040;-75
2022/12/28 08:33:00;;;;;;;;;3.33;2.00;;;;;12.25;100.00;101284.72;5056916;28;61369;-75
2022/12/28 08:35:25;;;;;;;;;4.00;2.67;;;;;12.24;100.00;101283.84;5056762;28;61345;-75
2022/12/28 08:37:54;;;;;;;;;4.33;1.00;;;;;12.26;100.00;101284.78;5056883;28;53466;-75
2022/12/28 08:40:20;;;;;;;;;4.67;2.00;;;;;12.26;100.00;101284.78;5056799;28;45571;-75
2022/12/28 08:42:45;;;;;;;;;2.00;1.00;;;;;12.26;100.00;101278.59;5055398;28;46142;-79
2022/12/28 08:45:11;;;;;;;;;2.33;2.00;;;;;12.29;100.00;101270.66;5056853;28;61318;-76
2022/12/28 08:47:36;;;;;;;;;5.00;1.00;;;;;12.28;100.00;101280.38;5051917;28;45421;-77
2022/12/28 08:50:01;;;;;;;;;1.67;1.67;;;;;12.32;100.00;101286.59;5056945;28;54578;-77
2022/12/28 08:52:27;;;;;;;;;3.00;2.33;;;;;12.30;100.00;101269.78;5056627;28;62001;-73
2022/12/28 08:54:52;;;;;;;;;1.67;1.33;;;;;12.32;100.00;101273.38;5055966;28;45437;-76
2022/12/28 08:57:17;;;;;;;;;2.00;2.00;;;;;12.26;100.00;101271.53;5056735;28;53716;-74
2022/12/28 08:59:43;;;;;;;;;2.67;2.67;;;;;12.32;100.00;101261.00;5057026;28;48431;-75
2022/12/28 09:02:12;;;;;;;;;2.67;2.67;;;;;12.35;100.00;101275.13;5056759;28;45253;-75
2022/12/28 09:04:37;;;;;;;;;2.33;2.33;;;;;12.25;100.00;101240.66;5072891;28;45393;-76
2022/12/28 09:07:02;;;;;;;;;1.00;1.00;;;;;12.36;100.00;101258.38;5056720;28;57218;-76
2022/12/28 09:09:28;;;;;;;;;2.67;2.00;;;;;12.42;100.00;101267.28;5056317;28;54737;-75
2022/12/28 09:11:53;;;;;;;;;4.00;2.00;;;;;12.42;100.00;101267.28;5056407;28;61453;-76
2022/12/28 09:14:18;;;;;;;;;2.00;2.00;;;;;12.44;100.00;101273.47;5053066;28;45298;-76
2022/12/28 09:16:44;;;;;;;;;4.67;2.67;;;;;12.44;100.00;101256.72;5057072;28;45284;-75
2022/12/28 09:19:13;;;;;;;;;2.33;2.33;;;;;12.47;100.00;101249.69;5052522;28;45546;-75
2022/12/28 09:21:39;;;;;;;;;2.00;2.00;;;;;12.48;100.00;101248.81;5053714;28;46361;-74
2022/12/28 09:24:05;;;;;;;;;1.33;1.33;;;;;12.52;100.00;101255.91;5055763;28;45301;-75
2022/12/28 09:26:33;;;;;;;;;2.67;2.00;;;;;12.54;100.00;101240.03;5056814;28;45447;-75
2022/12/28 09:29:00;;;;;;;;;2.00;2.00;;;;;12.61;100.00;101255.09;5055666;28;45347;-74
2022/12/28 09:31:28;;;;;;;;;2.00;2.00;;;;;12.64;100.00;101248.97;5056758;28;45509;-74
2022/12/28 09:34:00;;;;;;;;;2.00;2.00;;;;;12.52;100.00;101218.84;5056380;28;45213;-76
2022/12/28 09:36:29;;;;;;;;;3.00;3.00;;;;;12.68;100.00;101243.72;5071453;28;45508;-75
2022/12/28 09:38:54;;;;;;;;;4.00;2.00;;;;;12.68;100.00;101241.06;5055913;28;45480;-75
2022/12/28 09:41:29;;;;;;;;;1.67;1.67;;;;;12.70;100.00;101251.66;5055881;28;59333;-77
2022/12/28 09:44:25;;;;;;;;;3.00;2.00;;;;;12.72;100.00;101239.31;5072079;28;45449;-77
2022/12/28 09:46:53;;;;;;;;;3.00;3.00;;;;;12.68;100.00;101242.81;5051868;28;45339;-77
2022/12/28 09:49:25;;;;;;;;;1.00;1.00;;;;;12.74;100.00;101249.06;5052432;28;46891;-74
2022/12/28 09:51:55;;;;;;;;;7.67;2.00;;;;;12.78;100.00;101252.59;5056492;28;45224;-77
2022/12/28 09:54:20;;;;;;;;;2.00;2.00;;;;;12.78;100.00;101240.28;5071787;28;45477;-75
2022/12/28 09:56:47;;;;;;;;;2.00;2.00;;;;;12.78;100.00;101250.88;5056334;28;49097;-77
2022/12/28 09:59:20;;;;;;;;;4.67;3.00;;;;;12.80;100.00;101248.22;5072072;28;45512;-75
2022/12/28 10:01:54;;;;;;;;;4.00;2.67;;;;;12.85;100.00;101244.72;5071810;28;45945;-75
2022/12/28 10:04:19;;;;;;;;;3.00;2.33;;;;;12.88;100.00;101240.31;5056083;28;45511;-74
2022/12/28 10:06:45;;;;;;;;;4.33;2.33;;;;;12.96;100.00;101226.25;5056647;28;45407;-75
2022/12/28 10:09:16;;;;;;;;;2.00;2.00;;;;;13.02;100.00;101236.91;5071775;28;45335;-75
2022/12/28 10:11:43;;;;;;;;;1.00;1.00;;;;;13.03;100.00;101230.72;5070251;28;46578;-76
2022/12/28 10:14:33;;;;;;;;;2.00;2.00;;;;;13.09;100.00;101235.19;5053958;28;45418;-76
2022/12/28 10:16:58;;;;;;;;;2.00;1.00;;;;;13.09;100.00;101222.81;5047617;28;45316;-76
2022/12/28 10:19:25;;;;;;;;;3.00;3.00;;;;;13.14;100.00;101230.81;5056412;28;45272;-74
2022/12/28 10:22:00;;;;;;;;;4.00;2.67;;;;;13.18;100.00;101229.06;5055769;28;47655;-76
2022/12/28 10:24:25;;;;;;;;;4.00;2.00;;;;;13.13;100.00;101212.25;5071800;28;45382;-76
2022/12/28 10:26:51;;;;;;;;;5.00;3.00;;;;;13.16;100.00;101212.28;5055607;28;53812;-77
2022/12/28 10:29:20;;;;;;;;;1.33;1.00;;;;;13.10;100.00;101200.75;5056405;28;45470;-75
2022/12/28 10:32:05;;;;;;;;;3.00;2.00;;;;;13.11;100.00;101213.13;5055721;28;46428;-77
2022/12/28 10:34:32;;;;;;;;;2.67;2.67;;;;;13.09;100.00;101212.22;5055760;28;45572;-74
2022/12/28 10:37:13;;;;;;;;;1.67;1.67;;;;;13.11;100.00;101220.19;5055850;28;45247;-74
2022/12/28 10:39:39;;;;;;;;;3.33;2.00;;;;;13.05;100.00;101210.44;5054635;28;45347;-75
2022/12/28 10:42:19;;;;;;;;;1.00;1.00;;;;;13.07;100.00;101219.28;5054895;28;64604;-77
2022/12/28 10:44:47;;;;;;;;;2.00;2.00;;;;;13.00;100.00;101198.03;5054774;28;45599;-74
2022/12/28 10:47:24;;;;;;;;;1.33;1.33;;;;;13.02;100.00;101198.91;5054534;28;45398;-74
2022/12/28 10:49:50;;;;;;;;;2.00;2.00;;;;;13.06;100.00;101201.59;5059213;28;45378;-74
2022/12/28 10:52:17;;;;;;;;;1.00;1.00;;;;;13.04;100.00;101191.84;5058897;28;46753;-75
2022/12/28 10:54:43;;;;;;;;;2.00;1.00;;;;;13.03;100.00;101192.72;5059098;28;45497;-76
2022/12/28 10:57:19;;;;;;;;;1.00;1.00;;;;;13.02;100.00;101194.50;5074888;28;45331;-75
2022/12/28 10:59:49;;;;;;;;;0.00;0.00;;;;;12.95;100.00;101192.69;5058069;28;45484;-74
2022/12/28 11:02:20;;;;;;;;;3.33;2.00;;;;;13.02;100.00;101191.84;5058649;28;46976;-76
2022/12/28 11:05:00;;;;;;;;;1.00;1.00;;;;;13.06;100.00;101179.50;5059108;28;45161;-77
2022/12/28 11:07:29;;;;;;;;;1.00;1.00;;;;;13.11;100.00;101167.16;5059581;28;45394;-77
2022/12/28 11:10:15;;;;;;;;;1.00;1.00;;;;;13.14;100.00;101161.88;5059559;28;45390;-76
2022/12/28 11:12:44;;;;;;;;;4.67;1.67;;;;;13.14;100.00;101145.97;5054883;28;45711;-76
2022/12/28 11:15:18;;;;;;;;;1.33;1.33;;;;;13.23;100.00;101139.88;5058661;28;45330;-77
2022/12/28 11:17:45;;;;;;;;;3.00;1.00;;;;;13.22;100.00;101116.88;5058963;28;45390;-77
2022/12/28 11:20:19;;;;;;;;;3.00;1.33;;;;;13.27;100.00;101110.72;5074486;28;45527;-75
2022/12/28 11:22:45;;;;;;;;;1.33;1.00;;;;;13.34;100.00;101123.13;5074390;28;46608;-75
2022/12/28 11:25:15;;;;;;;;;1.00;1.00;;;;;13.34;100.00;101114.28;5057283;28;45372;-76
2022/12/28 11:27:41;;;;;;;;;2.33;1.00;;;;;13.40;100.00;101105.44;5040961;28;45234;-75
2022/12/28 11:30:12;;;;;;;;;2.33;1.00;;;;;13.40;100.00;101097.50;5061316;28;45245;-77
2022/12/28 11:32:56;;;;;;;;;0.00;0.00;;;;;13.46;100.00;101106.34;5074176;28;47371;-76
2022/12/28 11:35:25;;;;;;;;;2.00;2.00;;;;;13.44;100.00;101094.88;5073975;28;45537;-75
2022/12/28 11:37:59;;;;;;;;;2.00;2.00;;;;;13.47;100.00;101092.22;5074180;28;45202;-75
2022/12/28 11:40:43;;;;;;;;;1.00;1.00;;;;;13.53;100.00;101086.03;5057845;28;45447;-75
2022/12/28 11:43:38;;;;;;;;;2.00;2.00;;;;;13.55;100.00;101074.56;5058192;28;46928;-76
2022/12/28 11:46:26;;;;;;;;;1.00;1.00;;;;;13.58;100.00;101078.97;5034753;28;45596;-76